Time;durP1;ratioP1;P1;durP2;ratioP2;P2;SDS_P1;SDS_P2;PMS_P1;PMS_P2;Temp;Humidity;BMP_temperature;BMP_pressure;BME280_temperature;BME280_humidity;BME280_pressure;Samples;Min_cycle;Max_cycle;Signal;HPM_P1;HPM_P2
2022/03/19 00:00:00;;;;;;;44.67;15.68;;;;;;;;;;5019226;28;20029;-64
2022/03/19 00:02:25;;;;;;;39.28;15.38;;;;;;;;;;5015234;28;20394;-64
2022/03/19 00:04:53;;;;;;;26.23;15.05;;;;;;;;;;5020328;28;20034;-64
2022/03/19 00:07:19;;;;;;;39.13;15.82;;;;;;;;;;5022093;28;20049;-64
2022/03/19 00:09:44;;;;;;;32.53;13.88;;;;;;;;;;5020663;28;20025;-64
2022/03/19 00:12:14;;;;;;;28.10;14.13;;;;;;;;;;5020568;28;20025;-65
2022/03/19 00:14:43;;;;;;;30.30;13.45;;;;;;;;;;5023089;28;20030;-64
2022/03/19 00:17:10;;;;;;;29.45;14.18;;;;;;;;;;5020423;28;20034;-64
2022/03/19 00:19:39;;;;;;;30.50;14.05;;;;;;;;;;5021529;28;20030;-64
2022/03/19 00:22:06;;;;;;;32.00;14.77;;;;;;;;;;5023457;28;20034;-64
2022/03/19 00:24:32;;;;;;;27.40;14.35;;;;;;;;;;5022189;28;20033;-64
2022/03/19 00:26:58;;;;;;;29.15;14.77;;;;;;;;;;5022203;28;20043;-64
2022/03/19 00:29:24;;;;;;;30.13;15.00;;;;;;;;;;5018845;28;20663;-64
2022/03/19 00:31:49;;;;;;;32.80;14.02;;;;;;;;;;5020683;28;20025;-64
2022/03/19 00:34:15;;;;;;;24.17;13.27;;;;;;;;;;5027158;28;20064;-64
2022/03/19 00:36:42;;;;;;;26.27;13.18;;;;;;;;;;5027586;28;20090;-65
2022/03/19 00:39:08;;;;;;;23.77;14.10;;;;;;;;;;5016003;28;20077;-64
2022/03/19 00:41:34;;;;;;;28.60;13.38;;;;;;;;;;5014069;28;20113;-64
2022/03/19 00:44:00;;;;;;;28.73;13.43;;;;;;;;;;5017950;28;20045;-64
2022/03/19 00:46:26;;;;;;;26.05;12.55;;;;;;;;;;5029109;28;20418;-64
2022/03/19 00:48:52;;;;;;;32.65;12.75;;;;;;;;;;5023020;28;20037;-65
2022/03/19 00:51:17;;;;;;;28.52;13.05;;;;;;;;;;5022575;28;20549;-64
2022/03/19 00:53:43;;;;;;;21.52;12.13;;;;;;;;;;5021288;28;20093;-64
2022/03/19 00:56:10;;;;;;;24.65;11.35;;;;;;;;;;5021855;28;20037;-64
2022/03/19 00:58:36;;;;;;;17.75;11.02;;;;;;;;;;5020921;28;20034;-65
2022/03/19 01:01:02;;;;;;;18.58;11.32;;;;;;;;;;5018717;28;20037;-64
2022/03/19 01:03:28;;;;;;;19.60;11.50;;;;;;;;;;5016292;28;20356;-64
2022/03/19 01:05:54;;;;;;;29.25;12.00;;;;;;;;;;5015564;28;20088;-64
2022/03/19 01:08:20;;;;;;;25.27;12.13;;;;;;;;;;5020645;28;20038;-63
2022/03/19 01:10:45;;;;;;;28.88;12.60;;;;;;;;;;5024442;28;20513;-65
2022/03/19 01:13:11;;;;;;;24.17;12.52;;;;;;;;;;5018608;28;20037;-64
2022/03/19 01:15:38;;;;;;;25.60;12.00;;;;;;;;;;5019006;28;20091;-63
2022/03/19 01:18:05;;;;;;;26.73;12.23;;;;;;;;;;5022890;28;20037;-64
2022/03/19 01:20:31;;;;;;;20.27;11.73;;;;;;;;;;5019216;28;20088;-64
2022/03/19 01:22:57;;;;;;;22.98;12.38;;;;;;;;;;5018705;28;20425;-63
2022/03/19 01:25:23;;;;;;;20.52;11.75;;;;;;;;;;5023347;28;20360;-64
2022/03/19 01:27:49;;;;;;;26.63;11.82;;;;;;;;;;5026105;28;20029;-64
2022/03/19 01:30:17;;;;;;;24.90;11.98;;;;;;;;;;5028513;28;20035;-64
2022/03/19 01:32:44;;;;;;;18.85;12.05;;;;;;;;;;5015023;28;20026;-65
2022/03/19 01:35:11;;;;;;;33.28;12.93;;;;;;;;;;5022967;28;20045;-64
2022/03/19 01:37:38;;;;;;;24.67;11.70;;;;;;;;;;5023349;28;20069;-64
2022/03/19 01:40:05;;;;;;;23.33;11.50;;;;;;;;;;5018073;28;20045;-64
2022/03/19 01:42:34;;;;;;;31.52;12.30;;;;;;;;;;5013928;28;20057;-64
2022/03/19 01:45:02;;;;;;;20.80;11.57;;;;;;;;;;5020279;28;20052;-64
2022/03/19 01:47:31;;;;;;;31.95;12.25;;;;;;;;;;5012199;28;20056;-64
2022/03/19 01:49:58;;;;;;;26.73;11.90;;;;;;;;;;5017092;28;20037;-64
2022/03/19 01:52:25;;;;;;;24.30;11.80;;;;;;;;;;5014415;28;20034;-64
2022/03/19 01:54:51;;;;;;;25.85;11.13;;;;;;;;;;5016389;28;20041;-64
2022/03/19 01:57:21;;;;;;;19.95;11.50;;;;;;;;;;5015462;28;20033;-64
2022/03/19 01:59:47;;;;;;;21.52;11.20;;;;;;;;;;5016759;28;20033;-64
2022/03/19 02:02:14;;;;;;;21.58;10.52;;;;;;;;;;5018847;28;20072;-64
2022/03/19 02:04:41;;;;;;;22.52;10.50;;;;;;;;;;5024637;28;20057;-64
2022/03/19 02:07:08;;;;;;;17.40;9.25;;;;;;;;;;5030276;28;20033;-64
2022/03/19 02:09:34;;;;;;;17.10;9.43;;;;;;;;;;5022707;28;20184;-65
2022/03/19 02:12:02;;;;;;;23.58;9.60;;;;;;;;;;5023905;28;20035;-64
2022/03/19 02:14:28;;;;;;;21.70;8.52;;;;;;;;;;5019572;28;20029;-64
2022/03/19 02:16:54;;;;;;;14.73;8.52;;;;;;;;;;5026030;28;20047;-64
2022/03/19 02:19:20;;;;;;;20.00;8.68;;;;;;;;;;5025526;28;20030;-64
2022/03/19 02:21:49;;;;;;;18.25;8.55;;;;;;;;;;5015678;28;20475;-64
2022/03/19 02:27:02;;;;;;;16.08;7.97;;;;;;;;;;5024210;28;20029;-64
2022/03/19 02:29:28;;;;;;;13.80;8.52;;;;;;;;;;5017330;28;20029;-64
2022/03/19 02:31:57;;;;;;;18.35;7.65;;;;;;;;;;5030956;28;20037;-64
2022/03/19 02:34:23;;;;;;;18.88;8.00;;;;;;;;;;5018925;28;20127;-64
2022/03/19 02:36:49;;;;;;;14.25;8.25;;;;;;;;;;5019407;28;20034;-64
2022/03/19 02:39:19;;;;;;;26.88;7.68;;;;;;;;;;5021247;28;20045;-64
2022/03/19 02:41:49;;;;;;;15.70;7.78;;;;;;;;;;5017962;28;20030;-64
2022/03/19 02:44:16;;;;;;;13.10;6.47;;;;;;;;;;5020225;28;20037;-64
2022/03/19 02:46:44;;;;;;;17.25;7.80;;;;;;;;;;5026383;28;20044;-64
2022/03/19 02:49:10;;;;;;;16.35;7.40;;;;;;;;;;5022990;28;20026;-64
2022/03/19 02:51:37;;;;;;;14.60;7.20;;;;;;;;;;5021775;28;20037;-64
2022/03/19 02:54:05;;;;;;;15.10;7.00;;;;;;;;;;5022588;28;20021;-64
2022/03/19 02:56:36;;;;;;;13.30;6.97;;;;;;;;;;5021055;28;20100;-64
2022/03/19 02:59:24;;;;;;;12.70;6.30;;;;;;;;;;5021775;28;20041;-64
2022/03/19 03:01:56;;;;;;;11.52;6.43;;;;;;;;;;5022322;28;20176;-64
2022/03/19 03:04:23;;;;;;;14.55;6.78;;;;;;;;;;5015313;28;22123;-64
2022/03/19 03:06:51;;;;;;;15.65;6.75;;;;;;;;;;5026467;28;20055;-64
2022/03/19 03:09:19;;;;;;;16.85;6.90;;;;;;;;;;5024461;28;20200;-64
2022/03/19 03:11:45;;;;;;;13.90;6.35;;;;;;;;;;5018195;28;20109;-64
2022/03/19 03:14:11;;;;;;;9.00;6.50;;;;;;;;;;5020668;28;20040;-64
2022/03/19 03:16:38;;;;;;;8.98;5.93;;;;;;;;;;5024648;28;20025;-64
2022/03/19 03:19:08;;;;;;;12.65;6.75;;;;;;;;;;5018851;28;20041;-64
2022/03/19 03:21:35;;;;;;;12.38;6.28;;;;;;;;;;5021385;28;20028;-64
2022/03/19 03:24:02;;;;;;;14.45;6.90;;;;;;;;;;5019161;28;20059;-64
2022/03/19 03:26:29;;;;;;;12.23;6.78;;;;;;;;;;5013537;28;20037;-64
2022/03/19 03:28:56;;;;;;;11.25;6.63;;;;;;;;;;5022920;28;20034;-64
2022/03/19 03:31:22;;;;;;;12.75;6.90;;;;;;;;;;5020084;28;20052;-65
2022/03/19 03:33:49;;;;;;;9.93;6.65;;;;;;;;;;5017974;28;20542;-64
2022/03/19 03:36:14;;;;;;;10.23;6.65;;;;;;;;;;5018908;28;20495;-64
2022/03/19 03:38:40;;;;;;;16.58;7.25;;;;;;;;;;5013898;28;20095;-64
2022/03/19 03:41:07;;;;;;;22.15;7.82;;;;;;;;;;5020340;28;20057;-64
2022/03/19 03:43:32;;;;;;;16.08;7.80;;;;;;;;;;5027603;28;20489;-64
2022/03/19 03:45:58;;;;;;;19.20;7.60;;;;;;;;;;5022886;28;20454;-64
2022/03/19 03:48:24;;;;;;;19.45;8.45;;;;;;;;;;5021510;28;20052;-64
2022/03/19 03:50:56;;;;;;;16.10;7.20;;;;;;;;;;5014792;28;20044;-64
2022/03/19 03:53:27;;;;;;;11.27;6.78;;;;;;;;;;5018324;28;20438;-64
2022/03/19 03:55:53;;;;;;;13.60;7.47;;;;;;;;;;5022819;28;20034;-64
2022/03/19 03:58:18;;;;;;;19.40;7.80;;;;;;;;;;5023968;28;20971;-63
2022/03/19 04:00:44;;;;;;;10.52;6.97;;;;;;;;;;5023621;28;20029;-64
2022/03/19 04:03:11;;;;;;;17.77;7.20;;;;;;;;;;5014180;28;20061;-64
2022/03/19 04:05:37;;;;;;;10.52;6.85;;;;;;;;;;5018231;28;20402;-63
2022/03/19 04:08:04;;;;;;;9.07;6.43;;;;;;;;;;5032409;28;20663;-64
2022/03/19 04:10:31;;;;;;;17.48;6.65;;;;;;;;;;5030121;28;20040;-64
2022/03/19 04:12:58;;;;;;;13.27;6.93;;;;;;;;;;5029797;28;20124;-63
2022/03/19 04:15:43;;;;;;;8.90;6.85;;;;;;;;;;5022064;28;20154;-64
2022/03/19 04:18:29;;;;;;;19.48;6.95;;;;;;;;;;5020051;28;20044;-63
2022/03/19 04:21:14;;;;;;;12.45;6.75;;;;;;;;;;5013580;28;20034;-64
2022/03/19 04:23:59;;;;;;;12.05;7.03;;;;;;;;;;5023124;28;20033;-64
2022/03/19 04:26:45;;;;;;;16.55;7.13;;;;;;;;;;5020154;28;20167;-64
2022/03/19 04:29:30;;;;;;;8.55;6.82;;;;;;;;;;5020232;28;20092;-64
2022/03/19 04:32:16;;;;;;;11.65;6.93;;;;;;;;;;5026629;28;20029;-64
2022/03/19 04:36:29;;;;;;;14.65;6.32;;;;;;;;;;5030942;28;20060;-63
2022/03/19 04:38:16;;;;;;;19.67;7.15;;;;;;;;;;5014908;28;20121;-63
2022/03/19 04:41:00;;;;;;;14.70;7.22;;;;;;;;;;5017252;28;20076;-63
2022/03/19 04:43:44;;;;;;;12.00;6.75;;;;;;;;;;5032599;28;20179;-63
2022/03/19 04:46:09;;;;;;;11.05;6.75;;;;;;;;;;5014355;28;20514;-64
2022/03/19 04:48:35;;;;;;;10.02;6.47;;;;;;;;;;5018907;28;20470;-63
2022/03/19 04:51:01;;;;;;;16.27;7.30;;;;;;;;;;5016177;28;20038;-63
2022/03/19 04:53:27;;;;;;;12.48;6.53;;;;;;;;;;5016730;28;20080;-64
2022/03/19 04:55:53;;;;;;;11.88;7.13;;;;;;;;;;5014871;28;20026;-63
2022/03/19 04:58:19;;;;;;;13.50;7.15;;;;;;;;;;5025454;28;20036;-63
2022/03/19 05:00:44;;;;;;;11.85;7.65;;;;;;;;;;5017708;28;20361;-63
2022/03/19 05:03:13;;;;;;;15.73;8.02;;;;;;;;;;5021283;28;20031;-63
2022/03/19 05:05:39;;;;;;;15.60;7.13;;;;;;;;;;5013983;28;20108;-64
2022/03/19 05:08:06;;;;;;;17.88;7.50;;;;;;;;;;5019657;28;20077;-64
2022/03/19 05:13:17;;;;;;;14.10;7.43;;;;;;;;;;5020433;28;20403;-63
2022/03/19 05:15:43;;;;;;;17.48;8.00;;;;;;;;;;5022144;28;20034;-63
2022/03/19 05:18:09;;;;;;;12.43;7.50;;;;;;;;;;5022913;28;20029;-63
2022/03/19 05:20:35;;;;;;;17.63;7.43;;;;;;;;;;5014146;28;20032;-64
2022/03/19 05:23:04;;;;;;;14.10;7.20;;;;;;;;;;5020815;28;20509;-63
2022/03/19 05:25:30;;;;;;;13.25;7.63;;;;;;;;;;5031631;28;20109;-63
2022/03/19 05:27:56;;;;;;;11.77;7.15;;;;;;;;;;5021570;28;20065;-63
2022/03/19 05:30:22;;;;;;;15.10;7.30;;;;;;;;;;5015920;28;20111;-63
2022/03/19 05:32:48;;;;;;;14.25;7.60;;;;;;;;;;5017998;28;20634;-63
2022/03/19 05:35:16;;;;;;;11.75;6.88;;;;;;;;;;5022870;28;20491;-64
2022/03/19 05:37:42;;;;;;;10.55;6.95;;;;;;;;;;5022556;28;20041;-63
2022/03/19 05:40:09;;;;;;;11.95;6.88;;;;;;;;;;5023565;28;20029;-63
2022/03/19 05:42:35;;;;;;;25.15;8.20;;;;;;;;;;5021661;28;20040;-64
2022/03/19 05:45:00;;;;;;;18.20;7.00;;;;;;;;;;5024261;28;20029;-63
2022/03/19 05:47:26;;;;;;;14.05;7.20;;;;;;;;;;5015379;28;20032;-64
2022/03/19 05:49:52;;;;;;;16.10;7.10;;;;;;;;;;5021190;28;20030;-64
2022/03/19 05:52:18;;;;;;;15.15;7.32;;;;;;;;;;5012122;28;20061;-63
2022/03/19 05:54:44;;;;;;;11.75;6.70;;;;;;;;;;5022306;28;20030;-63
2022/03/19 05:57:10;;;;;;;27.77;7.68;;;;;;;;;;5015063;28;20501;-64
2022/03/19 05:59:35;;;;;;;12.00;6.60;;;;;;;;;;5016572;28;20109;-63
2022/03/19 06:02:02;;;;;;;18.27;6.93;;;;;;;;;;5013060;28;20111;-63
2022/03/19 06:04:28;;;;;;;12.68;6.72;;;;;;;;;;5020443;28;20030;-63
2022/03/19 06:06:54;;;;;;;10.23;7.07;;;;;;;;;;5025494;28;20036;-63
2022/03/19 06:09:19;;;;;;;14.48;6.85;;;;;;;;;;5018044;28;20034;-63
2022/03/19 06:11:46;;;;;;;13.32;7.65;;;;;;;;;;5013913;28;20040;-63
2022/03/19 06:14:12;;;;;;;14.25;6.80;;;;;;;;;;5016990;28;20132;-64
2022/03/19 06:16:38;;;;;;;9.45;6.97;;;;;;;;;;5020686;28;20034;-64
2022/03/19 06:19:04;;;;;;;14.50;7.07;;;;;;;;;;5021931;28;20033;-63
2022/03/19 06:21:30;;;;;;;12.65;6.90;;;;;;;;;;5024936;28;20539;-64
2022/03/19 06:23:55;;;;;;;14.68;7.25;;;;;;;;;;5016447;28;20037;-64
2022/03/19 06:26:23;;;;;;;16.50;6.68;;;;;;;;;;5014641;28;20029;-64
2022/03/19 06:28:52;;;;;;;12.75;7.40;;;;;;;;;;5028670;28;20450;-64
2022/03/19 06:31:18;;;;;;;13.82;7.43;;;;;;;;;;5025750;28;20034;-63
2022/03/19 06:33:44;;;;;;;14.35;7.07;;;;;;;;;;5021611;28;20047;-63
2022/03/19 06:38:56;;;;;;;18.38;8.07;;;;;;;;;;5019037;28;22558;-63
2022/03/19 06:41:22;;;;;;;18.17;7.53;;;;;;;;;;5014330;28;20030;-63
2022/03/19 06:43:48;;;;;;;14.65;7.30;;;;;;;;;;5017353;28;20034;-63
2022/03/19 06:46:14;;;;;;;10.95;7.32;;;;;;;;;;5020458;28;20064;-64
2022/03/19 06:48:40;;;;;;;15.27;6.72;;;;;;;;;;5013710;28;20049;-63
2022/03/19 06:51:05;;;;;;;13.25;7.53;;;;;;;;;;5019521;28;20025;-63
2022/03/19 06:53:31;;;;;;;16.10;7.38;;;;;;;;;;5020762;28;20038;-63
2022/03/19 06:55:57;;;;;;;15.50;7.13;;;;;;;;;;5019310;28;20061;-63
2022/03/19 06:58:23;;;;;;;25.13;7.82;;;;;;;;;;5025288;28;20053;-64
2022/03/19 07:00:49;;;;;;;11.55;7.57;;;;;;;;;;5026318;28;20540;-64
2022/03/19 07:03:15;;;;;;;14.05;7.53;;;;;;;;;;5020199;28;20033;-63
2022/03/19 07:05:41;;;;;;;15.40;7.75;;;;;;;;;;5019091;28;20034;-63
2022/03/19 07:08:09;;;;;;;19.85;7.90;;;;;;;;;;5031808;28;20425;-64
2022/03/19 07:10:35;;;;;;;13.40;7.53;;;;;;;;;;5022637;28;20018;-63
2022/03/19 07:13:02;;;;;;;13.40;7.07;;;;;;;;;;5027149;28;20029;-63
2022/03/19 07:15:29;;;;;;;18.48;8.52;;;;;;;;;;5027791;28;20045;-63
2022/03/19 07:17:56;;;;;;;13.55;7.07;;;;;;;;;;5019776;28;20040;-63
2022/03/19 07:20:22;;;;;;;21.83;6.95;;;;;;;;;;5022534;28;20065;-63
2022/03/19 07:22:49;;;;;;;18.95;7.75;;;;;;;;;;5023789;28;20573;-63
2022/03/19 07:25:16;;;;;;;15.57;7.78;;;;;;;;;;5021272;28;20045;-64
2022/03/19 07:27:43;;;;;;;16.92;7.53;;;;;;;;;;5018912;28;20060;-63
2022/03/19 07:30:10;;;;;;;12.48;7.38;;;;;;;;;;5018128;28;20014;-63
2022/03/19 07:32:37;;;;;;;14.88;7.53;;;;;;;;;;5015498;28;20029;-64
2022/03/19 07:35:04;;;;;;;20.45;7.50;;;;;;;;;;5015680;28;20120;-63
2022/03/19 07:37:30;;;;;;;12.75;7.85;;;;;;;;;;5018466;28;20030;-64
2022/03/19 07:39:57;;;;;;;17.55;7.75;;;;;;;;;;5016045;28;20518;-63
2022/03/19 07:42:23;;;;;;;9.75;6.70;;;;;;;;;;5016178;28;20030;-63
2022/03/19 07:44:49;;;;;;;21.27;8.07;;;;;;;;;;5017631;28;20026;-64
2022/03/19 07:47:15;;;;;;;19.63;8.50;;;;;;;;;;5018411;28;20017;-64
2022/03/19 07:49:41;;;;;;;20.08;9.52;;;;;;;;;;5017708;28;20475;-63
2022/03/19 07:52:09;;;;;;;18.40;9.20;;;;;;;;;;5018311;28;20804;-64
2022/03/19 07:54:37;;;;;;;16.67;7.93;;;;;;;;;;5013645;28;20084;-64
2022/03/19 07:57:04;;;;;;;18.20;8.07;;;;;;;;;;5016738;28;20032;-63
2022/03/19 07:59:30;;;;;;;14.52;7.93;;;;;;;;;;5014135;28;20034;-63
2022/03/19 08:01:56;;;;;;;14.30;7.40;;;;;;;;;;5026974;28;20033;-63
2022/03/19 08:04:22;;;;;;;20.13;7.85;;;;;;;;;;5019868;28;20030;-63
2022/03/19 08:06:53;;;;;;;22.58;7.78;;;;;;;;;;5019180;28;20029;-63
2022/03/19 08:09:20;;;;;;;17.15;7.95;;;;;;;;;;5014382;28;20034;-63
2022/03/19 08:11:49;;;;;;;15.68;8.88;;;;;;;;;;5021442;28;20030;-63
2022/03/19 08:14:15;;;;;;;22.90;8.85;;;;;;;;;;5015378;28;20395;-63
2022/03/19 08:16:47;;;;;;;15.02;8.57;;;;;;;;;;5021437;28;20116;-64
2022/03/19 08:19:19;;;;;;;18.20;10.75;;;;;;;;;;5018019;28;20084;-63
2022/03/19 08:21:44;;;;;;;21.25;9.48;;;;;;;;;;5022477;28;20025;-63
2022/03/19 08:24:11;;;;;;;13.55;7.93;;;;;;;;;;5015299;28;20021;-64
2022/03/19 08:26:38;;;;;;;16.33;8.73;;;;;;;;;;5018366;28;20087;-64
2022/03/19 08:29:04;;;;;;;15.02;8.50;;;;;;;;;;5015587;28;20018;-63
2022/03/19 08:31:31;;;;;;;19.08;8.02;;;;;;;;;;5018171;28;20033;-63
2022/03/19 08:33:57;;;;;;;19.23;8.80;;;;;;;;;;5024995;28;20037;-63
2022/03/19 08:36:23;;;;;;;24.08;9.52;;;;;;;;;;5026154;28;20107;-64
2022/03/19 08:41:34;;;;;;;14.32;8.43;;;;;;;;;;5018885;28;20022;-63
2022/03/19 08:44:01;;;;;;;19.88;9.05;;;;;;;;;;5016142;28;20087;-64
2022/03/19 08:46:27;;;;;;;21.17;10.25;;;;;;;;;;5018569;28;20487;-64
2022/03/19 08:48:53;;;;;;;14.68;9.05;;;;;;;;;;5030243;28;20043;-64
2022/03/19 08:54:19;;;;;;;17.58;9.52;;;;;;;;;;5025760;28;20059;-64
2022/03/19 08:56:50;;;;;;;24.02;8.90;;;;;;;;;;5027362;28;20045;-64
2022/03/19 08:59:17;;;;;;;20.52;9.75;;;;;;;;;;5026619;28;20039;-64
2022/03/19 09:01:44;;;;;;;22.75;9.88;;;;;;;;;;5025235;28;20029;-64
2022/03/19 09:04:11;;;;;;;21.00;9.93;;;;;;;;;;5030116;28;20095;-64
2022/03/19 09:06:38;;;;;;;19.95;9.35;;;;;;;;;;5026551;28;20144;-64
2022/03/19 09:09:05;;;;;;;20.00;9.25;;;;;;;;;;5025779;28;20025;-64
2022/03/19 09:11:33;;;;;;;16.15;8.05;;;;;;;;;;5026120;28;20510;-64
2022/03/19 09:14:00;;;;;;;18.75;8.77;;;;;;;;;;5027750;28;20041;-64
2022/03/19 09:16:26;;;;;;;15.40;8.18;;;;;;;;;;5029810;28;20060;-64
2022/03/19 09:18:52;;;;;;;18.38;7.68;;;;;;;;;;5034102;28;20087;-64
2022/03/19 09:21:18;;;;;;;13.60;7.28;;;;;;;;;;5028527;28;20060;-64
2022/03/19 09:23:49;;;;;;;13.35;7.63;;;;;;;;;;5024903;28;20042;-63
2022/03/19 09:26:16;;;;;;;16.45;7.47;;;;;;;;;;5032330;28;20064;-64
2022/03/19 09:28:42;;;;;;;13.85;7.07;;;;;;;;;;5030210;28;20541;-64
2022/03/19 09:31:08;;;;;;;9.65;6.82;;;;;;;;;;5024190;28;20037;-64
2022/03/19 09:33:34;;;;;;;11.23;6.93;;;;;;;;;;5019745;28;20416;-64
2022/03/19 09:36:03;;;;;;;12.32;6.57;;;;;;;;;;5020400;28;20045;-64
2022/03/19 09:38:30;;;;;;;12.43;6.97;;;;;;;;;;5015475;28;20417;-64
2022/03/19 09:40:58;;;;;;;11.90;6.72;;;;;;;;;;5025752;28;20376;-64
2022/03/19 09:43:25;;;;;;;12.25;7.13;;;;;;;;;;5022587;28;20083;-64
2022/03/19 09:45:51;;;;;;;17.65;6.57;;;;;;;;;;5021735;28;20030;-63
2022/03/19 09:48:19;;;;;;;12.80;6.57;;;;;;;;;;5017464;28;20037;-64
2022/03/19 09:50:45;;;;;;;10.65;6.18;;;;;;;;;;5018708;28;20049;-64
2022/03/19 09:53:12;;;;;;;8.75;6.32;;;;;;;;;;5021365;28;20041;-64
2022/03/19 09:55:39;;;;;;;11.43;6.75;;;;;;;;;;5021953;28;20034;-63
2022/03/19 09:58:05;;;;;;;23.25;6.90;;;;;;;;;;5015187;28;20059;-64
2022/03/19 10:00:31;;;;;;;11.73;6.53;;;;;;;;;;5021498;28;20036;-64
2022/03/19 10:03:00;;;;;;;17.88;6.55;;;;;;;;;;5016372;28;20028;-62
2022/03/19 10:08:38;;;;;;;9.38;6.15;;;;;;;;;;5013509;28;20041;-64
2022/03/19 10:11:11;;;;;;;12.68;7.07;;;;;;;;;;5021667;28;20069;-64
2022/03/19 10:13:44;;;;;;;16.95;6.68;;;;;;;;;;5024957;28;20037;-62
2022/03/19 10:16:17;;;;;;;20.65;6.75;;;;;;;;;;5014862;28;20096;-64
2022/03/19 10:18:43;;;;;;;13.07;6.00;;;;;;;;;;5019042;28;20039;-64
2022/03/19 10:21:16;;;;;;;11.23;6.05;;;;;;;;;;5018087;28;20045;-64
2022/03/19 10:23:43;;;;;;;9.18;6.22;;;;;;;;;;5013648;28;20030;-64
2022/03/19 10:26:23;;;;;;;15.55;6.72;;;;;;;;;;5017105;28;20115;-64
2022/03/19 10:28:58;;;;;;;9.63;6.40;;;;;;;;;;5019549;28;20125;-64
2022/03/19 10:31:38;;;;;;;10.85;5.82;;;;;;;;;;5018026;28;20026;-64
2022/03/19 10:34:06;;;;;;;11.73;5.97;;;;;;;;;;5021342;28;20026;-64
2022/03/19 10:36:36;;;;;;;13.40;6.97;;;;;;;;;;5021585;28;20036;-64
2022/03/19 10:39:17;;;;;;;13.85;6.57;;;;;;;;;;5020340;28;20086;-64
2022/03/19 10:41:43;;;;;;;9.45;6.22;;;;;;;;;;5016859;28;20025;-63
2022/03/19 10:44:17;;;;;;;7.45;6.25;;;;;;;;;;5026803;28;20113;-64
2022/03/19 10:46:50;;;;;;;9.57;6.63;;;;;;;;;;5022215;28;20485;-64
2022/03/19 10:49:20;;;;;;;11.88;6.55;;;;;;;;;;5015506;28;20095;-64
2022/03/19 10:51:48;;;;;;;10.38;6.07;;;;;;;;;;5019531;28;20026;-64
2022/03/19 10:54:14;;;;;;;10.18;6.90;;;;;;;;;;5020863;28;20041;-64
2022/03/19 10:56:42;;;;;;;11.20;5.80;;;;;;;;;;5023998;28;20047;-64
2022/03/19 10:59:08;;;;;;;10.55;5.43;;;;;;;;;;5021730;28;20044;-64
2022/03/19 11:01:37;;;;;;;12.50;6.43;;;;;;;;;;5031428;28;20026;-64
2022/03/19 11:04:07;;;;;;;9.77;5.80;;;;;;;;;;5026185;28;20025;-64
2022/03/19 11:06:39;;;;;;;7.43;5.40;;;;;;;;;;5023913;28;20029;-64
2022/03/19 11:09:09;;;;;;;9.18;5.90;;;;;;;;;;5020001;28;20355;-64
2022/03/19 11:11:55;;;;;;;10.88;6.32;;;;;;;;;;5014972;28;20092;-64
2022/03/19 11:14:23;;;;;;;12.88;6.13;;;;;;;;;;5018435;28;20096;-64
2022/03/19 11:19:49;;;;;;;14.00;6.03;;;;;;;;;;5019464;28;20038;-63
2022/03/19 11:22:15;;;;;;;10.25;4.97;;;;;;;;;;5022528;28;20556;-64
2022/03/19 11:24:58;;;;;;;19.45;7.00;;;;;;;;;;5018883;28;20121;-64
2022/03/19 11:27:28;;;;;;;10.18;6.50;;;;;;;;;;5017283;28;20030;-64
2022/03/19 11:29:58;;;;;;;8.10;5.82;;;;;;;;;;5016239;28;20030;-64
2022/03/19 11:32:24;;;;;;;10.35;5.93;;;;;;;;;;5013653;28;20030;-64
2022/03/19 11:34:56;;;;;;;10.43;5.78;;;;;;;;;;5019259;28;20046;-64
2022/03/19 11:37:22;;;;;;;;;;;;;;;;;;5018849;28;20032;-63
2022/03/19 11:40:26;;;;;;;9.10;6.38;;;;;;;;;;5015839;28;19917;-63
2022/03/19 11:43:05;;;;;;;9.75;5.65;;;;;;;;;;5015387;28;20034;-64
2022/03/19 11:46:03;;;;;;;9.52;6.00;;;;;;;;;;5023736;28;20032;-63
2022/03/19 11:48:35;;;;;;;10.52;5.63;;;;;;;;;;5020291;28;20169;-64
2022/03/19 11:51:20;;;;;;;;;;;;;;;;;;5026813;28;20033;-63
2022/03/19 11:54:02;;;;;;;14.63;5.50;;;;;;;;;;5028267;28;19917;-64
2022/03/19 11:56:41;;;;;;;12.70;6.03;;;;;;;;;;5017141;28;20041;-64
2022/03/19 11:59:15;;;;;;;13.35;6.20;;;;;;;;;;5021419;28;20053;-63
2022/03/19 12:01:54;;;;;;;8.32;6.07;;;;;;;;;;5022687;28;20472;-63
2022/03/19 12:04:24;;;;;;;16.00;6.55;;;;;;;;;;5018874;28;20498;-63
2022/03/19 12:06:54;;;;;;;9.48;5.72;;;;;;;;;;5028202;28;20032;-63
2022/03/19 12:09:32;;;;;;;15.45;6.45;;;;;;;;;;5013098;28;20042;-64
2022/03/19 12:12:28;;;;;;;13.93;6.72;;;;;;;;;;5016185;28;20047;-63
2022/03/19 12:14:56;;;;;;;10.00;5.82;;;;;;;;;;5016949;28;20084;-63
2022/03/19 12:17:29;;;;;;;10.68;6.32;;;;;;;;;;5018471;28;20383;-63
2022/03/19 12:19:55;;;;;;;11.13;6.75;;;;;;;;;;5032208;28;20069;-64
2022/03/19 12:22:34;;;;;;;9.75;6.40;;;;;;;;;;5024499;28;20050;-63
2022/03/19 12:25:18;;;;;;;12.82;6.63;;;;;;;;;;5020790;28;20114;-63
2022/03/19 12:27:57;;;;;;;14.80;6.90;;;;;;;;;;5018973;28;20139;-63
2022/03/19 12:30:25;;;;;;;14.10;6.55;;;;;;;;;;5022767;28;20613;-63
2022/03/19 12:32:56;;;;;;;11.38;6.00;;;;;;;;;;5021769;28;20062;-63
2022/03/19 12:35:24;;;;;;;15.75;6.28;;;;;;;;;;5021865;28;20040;-64
2022/03/19 12:37:57;;;;;;;7.90;6.28;;;;;;;;;;5023670;28;20100;-63
2022/03/19 12:40:26;;;;;;;11.52;7.15;;;;;;;;;;5023654;28;20084;-63
2022/03/19 12:43:00;;;;;;;9.45;6.68;;;;;;;;;;5020424;28;20125;-63
2022/03/19 12:45:39;;;;;;;9.95;6.53;;;;;;;;;;5024645;28;20386;-64
2022/03/19 12:48:13;;;;;;;13.30;8.20;;;;;;;;;;5019873;28;20514;-63
2022/03/19 12:50:41;;;;;;;13.15;7.43;;;;;;;;;;5019516;28;20734;-63
2022/03/19 12:53:07;;;;;;;12.32;7.13;;;;;;;;;;5028461;28;20038;-63
2022/03/19 12:55:33;;;;;;;8.48;6.03;;;;;;;;;;5031348;28;20386;-63
2022/03/19 12:58:01;;;;;;;11.05;6.50;;;;;;;;;;5018534;28;20149;-63
2022/03/19 13:00:28;;;;;;;10.25;6.63;;;;;;;;;;5016903;28;20100;-63
2022/03/19 13:02:55;;;;;;;16.85;6.45;;;;;;;;;;5016112;28;20049;-63
2022/03/19 13:05:22;;;;;;;10.13;6.32;;;;;;;;;;5027376;28;20061;-64
2022/03/19 13:08:10;;;;;;;14.27;7.60;;;;;;;;;;5024235;28;20029;-63
2022/03/19 13:10:49;;;;;;;18.60;8.43;;;;;;;;;;5018224;28;20037;-63
2022/03/19 13:13:15;;;;;;;12.75;6.82;;;;;;;;;;5024660;28;20041;-64
2022/03/19 13:15:54;;;;;;;13.30;6.80;;;;;;;;;;5025579;28;20036;-63
2022/03/19 13:18:28;;;;;;;13.27;6.22;;;;;;;;;;5024680;28;20021;-63
2022/03/19 13:21:12;;;;;;;11.90;6.93;;;;;;;;;;5016858;28;20495;-63
2022/03/19 13:23:40;;;;;;;11.10;6.60;;;;;;;;;;5015266;28;20029;-60
2022/03/19 13:26:06;;;;;;;11.18;7.13;;;;;;;;;;5018106;28;20029;-64
2022/03/19 13:28:33;;;;;;;11.50;6.57;;;;;;;;;;5021037;28;20037;-64
2022/03/19 13:30:59;;;;;;;14.65;6.88;;;;;;;;;;5018875;28;20034;-63
2022/03/19 13:33:31;;;;;;;12.63;7.30;;;;;;;;;;5018529;28;20090;-64
2022/03/19 13:35:57;;;;;;;15.90;8.03;;;;;;;;;;5021303;28;20046;-63
2022/03/19 13:38:24;;;;;;;9.68;6.55;;;;;;;;;;5016819;28;20295;-63
2022/03/19 13:40:54;;;;;;;15.93;8.65;;;;;;;;;;5015912;28;20049;-63
2022/03/19 13:43:22;;;;;;;15.82;7.70;;;;;;;;;;5018726;28;20025;-63
2022/03/19 13:45:47;;;;;;;14.52;8.07;;;;;;;;;;5017930;28;20099;-63
2022/03/19 13:48:14;;;;;;;6.85;6.15;;;;;;;;;;5016164;28;20030;-63
2022/03/19 13:50:56;;;;;;;7.85;6.30;;;;;;;;;;5018097;28;20029;-63
2022/03/19 13:53:22;;;;;;;14.40;6.65;;;;;;;;;;5012115;28;20065;-63
2022/03/19 13:55:48;;;;;;;13.45;7.22;;;;;;;;;;5027652;28;20057;-63
2022/03/19 13:58:14;;;;;;;13.93;7.38;;;;;;;;;;5027914;28;20391;-63
2022/03/19 14:00:42;;;;;;;15.70;8.15;;;;;;;;;;5020627;28;20040;-63
2022/03/19 14:03:13;;;;;;;9.60;7.97;;;;;;;;;;5021166;28;20478;-63
2022/03/19 14:05:43;;;;;;;18.33;7.05;;;;;;;;;;5012321;28;20065;-62
2022/03/19 14:08:15;;;;;;;10.45;6.80;;;;;;;;;;5017471;28;20506;-63
2022/03/19 14:10:43;;;;;;;10.60;7.75;;;;;;;;;;5020934;28;20072;-64
2022/03/19 14:13:17;;;;;;;14.10;6.95;;;;;;;;;;5017457;28;20482;-63
2022/03/19 14:15:50;;;;;;;9.75;7.05;;;;;;;;;;5019482;28;20079;-63
2022/03/19 14:18:32;;;;;;;12.07;7.78;;;;;;;;;;5012905;28;20030;-63
2022/03/19 14:21:01;;;;;;;14.57;7.00;;;;;;;;;;5018623;28;20111;-62
2022/03/19 14:23:27;;;;;;;12.50;7.57;;;;;;;;;;5022036;28;20133;-63
2022/03/19 14:25:53;;;;;;;9.77;7.03;;;;;;;;;;5019371;28;20030;-63
2022/03/19 14:28:21;;;;;;;16.38;7.10;;;;;;;;;;5021111;28;20478;-62
2022/03/19 14:30:47;;;;;;;12.93;6.57;;;;;;;;;;5017603;28;20060;-63
2022/03/19 14:33:13;;;;;;;13.25;6.78;;;;;;;;;;5012853;28;20022;-63
2022/03/19 14:35:47;;;;;;;9.85;6.13;;;;;;;;;;5020582;28;20115;-63
2022/03/19 14:38:18;;;;;;;9.00;6.30;;;;;;;;;;5018607;28;20442;-63
2022/03/19 14:40:45;;;;;;;12.05;6.20;;;;;;;;;;5024689;28;20029;-63
2022/03/19 14:43:15;;;;;;;16.70;5.75;;;;;;;;;;5025841;28;20117;-63
2022/03/19 14:45:42;;;;;;;10.13;6.30;;;;;;;;;;5020880;28;20042;-63
2022/03/19 14:48:08;;;;;;;16.45;6.13;;;;;;;;;;5011264;28;20441;-63
2022/03/19 14:50:34;;;;;;;7.10;5.60;;;;;;;;;;5020757;28;20022;-63
2022/03/19 14:53:00;;;;;;;9.60;6.53;;;;;;;;;;5016659;28;20099;-63
2022/03/19 14:55:25;;;;;;;8.40;6.45;;;;;;;;;;5016789;28;20041;-64
2022/03/19 14:57:52;;;;;;;9.25;5.97;;;;;;;;;;5025997;28;20036;-64
2022/03/19 15:00:18;;;;;;;11.75;5.97;;;;;;;;;;5021478;28;20040;-63